Time;durP1;ratioP1;P1;durP2;ratioP2;P2;SDS_P1;SDS_P2;PMS_P1;PMS_P2;Temp;Humidity;BMP_temperature;BMP_pressure;BME280_temperature;BME280_humidity;BME280_pressure;Samples;Min_cycle;Max_cycle;Signal;HPM_P1;HPM_P2
2021/11/07 00:05:20;;;;;;;1999.90;999.90;;;;;;;10.67;65.78;101340.28;15740178;28;20049;-59
2021/11/07 00:12:59;;;;;;;1999.90;999.90;;;;;;;10.62;66.24;101320.84;15740264;28;20052;-61
2021/11/07 00:20:34;;;;;;;1999.90;999.90;;;;;;;10.60;66.28;101298.84;15740072;28;20060;-60
2021/11/07 00:28:13;;;;;;;1999.90;999.90;;;;;;;10.37;66.95;101286.88;15738446;28;20045;-59
2021/11/07 00:36:15;;;;;;;1999.90;999.90;;;;;;;10.36;66.63;101270.47;15737375;28;20046;-59
2021/11/07 00:43:53;;;;;;;1999.90;999.90;;;;;;;10.31;67.04;101257.47;15751547;22;20191;-53
2021/11/07 00:51:31;;;;;;;1999.90;999.90;;;;;;;10.39;66.52;101223.22;15717145;28;20052;-57
2021/11/07 00:59:13;;;;;;;1999.90;999.90;;;;;;;10.24;67.33;101201.31;15776886;28;20068;-60
2021/11/07 01:06:47;;;;;;;1999.90;999.90;;;;;;;10.16;67.33;101198.44;15763144;28;20048;-53
2021/11/07 01:14:20;;;;;;;1999.90;999.90;;;;;;;9.98;67.61;101181.59;15787107;28;20570;-52
2021/11/07 01:21:56;;;;;;;1999.90;999.90;;;;;;;9.96;68.19;101169.94;15774372;28;20461;-60
2021/11/07 01:29:29;;;;;;;1999.90;999.90;;;;;;;10.11;67.72;101155.63;15739986;28;20052;-59
2021/11/07 01:37:07;;;;;;;1999.90;999.90;;;;;;;9.85;68.52;101123.97;15754350;28;20036;-58
2021/11/07 01:44:45;;;;;;;1999.90;999.90;;;;;;;9.98;68.62;101108.28;15765421;28;20048;-56
2021/11/07 01:52:22;;;;;;;1999.90;999.90;;;;;;;10.10;67.98;101089.81;15786861;28;20465;-59
2021/11/07 01:59:58;;;;;;;1999.90;999.90;;;;;;;9.85;68.92;101073.78;15767539;28;20548;-57
2021/11/07 02:07:33;;;;;;;1999.90;999.90;;;;;;;10.06;68.28;101052.56;15784544;28;20076;-58
2021/11/07 02:15:12;;;;;;;1999.90;999.90;;;;;;;10.05;68.54;101050.09;15762004;28;20133;-56
2021/11/07 02:22:51;;;;;;;1999.90;999.90;;;;;;;10.31;67.82;101039.06;15778867;28;20029;-55
2021/11/07 02:30:24;;;;;;;1999.90;999.90;;;;;;;10.46;66.88;101033.06;15782262;28;20097;-56
2021/11/07 02:37:59;;;;;;;1999.90;999.90;;;;;;;10.39;67.62;101002.00;15782852;28;20044;-53
2021/11/07 02:45:32;;;;;;;1999.90;999.90;;;;;;;10.35;67.67;100990.69;15761689;28;20067;-54
2021/11/07 02:53:06;;;;;;;1999.90;999.90;;;;;;;10.40;67.67;100978.53;15781289;28;20067;-60
2021/11/07 03:00:39;;;;;;;1999.90;999.90;;;;;;;10.37;67.89;100956.88;15744061;28;20041;-55
2021/11/07 03:08:12;;;;;;;1999.90;999.90;;;;;;;10.52;66.86;100936.06;15739344;28;20052;-55
2021/11/07 03:15:45;;;;;;;1999.90;999.90;;;;;;;10.29;67.64;100916.66;15738775;28;20040;-56
2021/11/07 03:23:22;;;;;;;1999.90;999.90;;;;;;;10.42;67.18;100900.94;15780881;28;20044;-57
2021/11/07 03:31:01;;;;;;;1999.90;999.90;;;;;;;10.25;67.91;100909.28;15742483;28;20139;-56
2021/11/07 03:38:35;;;;;;;1999.90;999.90;;;;;;;10.43;67.13;100899.81;15776327;28;20106;-57
2021/11/07 03:46:08;;;;;;;1999.90;999.90;;;;;;;10.38;67.13;100884.03;15755565;28;20526;-53
2021/11/07 03:53:43;;;;;;;1999.90;999.90;;;;;;;10.48;67.00;100846.63;15760632;28;20102;-56
2021/11/07 04:01:16;;;;;;;1999.90;999.90;;;;;;;10.39;66.80;100843.81;15754325;28;20058;-53
2021/11/07 04:08:50;;;;;;;1999.90;999.90;;;;;;;10.61;68.03;100839.22;15760003;28;20167;-52
2021/11/07 04:16:23;;;;;;;1999.90;999.90;;;;;;;10.46;68.78;100817.41;15778209;28;20361;-58
2021/11/07 04:23:58;;;;;;;1999.90;999.90;;;;;;;10.44;68.73;100801.00;15760367;28;20044;-57
2021/11/07 04:31:31;;;;;;;1999.90;999.90;;;;;;;10.39;68.32;100787.22;15752057;28;20112;-56
2021/11/07 04:39:05;;;;;;;1999.90;999.90;;;;;;;10.62;68.09;100780.28;15755578;28;20055;-55
2021/11/07 04:46:38;;;;;;;1999.90;999.90;;;;;;;10.69;67.91;100771.41;15753670;28;20302;-51
2021/11/07 04:54:12;;;;;;;1999.90;999.90;;;;;;;10.58;68.07;100745.81;15758300;28;20124;-55
2021/11/07 05:01:45;;;;;;;1999.90;999.90;;;;;;;10.75;67.23;100752.53;15758793;28;20053;-54
2021/11/07 05:09:20;;;;;;;1999.90;999.90;;;;;;;10.74;67.26;100736.94;15773745;28;20052;-61
2021/11/07 05:16:53;;;;;;;1999.90;999.90;;;;;;;10.86;67.15;100740.66;15761917;28;20454;-56
2021/11/07 05:24:27;;;;;;;1999.90;999.90;;;;;;;10.75;67.22;100721.81;15755777;28;20209;-56
2021/11/07 05:32:00;;;;;;;1999.90;999.90;;;;;;;10.77;67.07;100714.75;15779870;28;20044;-54
2021/11/07 05:39:34;;;;;;;1999.90;999.90;;;;;;;10.91;66.12;100718.13;15765046;28;20044;-53
2021/11/07 05:47:07;;;;;;;1999.90;999.90;;;;;;;11.07;66.33;100701.63;15772662;28;20041;-52
2021/11/07 05:54:47;;;;;;;1999.90;999.90;;;;;;;11.11;66.16;100701.78;15765701;28;20075;-55
2021/11/07 06:02:22;;;;;;;1999.90;999.90;;;;;;;10.79;67.21;100706.84;15746914;28;20059;-52
2021/11/07 06:09:59;;;;;;;1999.90;999.90;;;;;;;10.99;67.03;100694.94;15784883;28;20117;-57
2021/11/07 06:17:31;;;;;;;1999.90;999.90;;;;;;;10.93;67.55;100687.91;15775191;28;20118;-56
2021/11/07 06:25:06;;;;;;;1999.90;999.90;;;;;;;11.08;69.49;100689.31;15748666;28;20044;-54
2021/11/07 06:32:39;;;;;;;1999.90;999.90;;;;;;;10.98;69.67;100676.56;15740243;28;20086;-53
2021/11/07 06:40:14;;;;;;;1999.90;999.90;;;;;;;10.79;69.89;100667.78;15782983;28;20119;-54
2021/11/07 06:47:46;;;;;;;1999.90;999.90;;;;;;;11.03;69.15;100680.28;15781898;22;20044;-59
2021/11/07 06:55:21;;;;;;;1999.90;999.90;;;;;;;10.80;69.53;100665.81;15742076;28;20131;-60
2021/11/07 07:02:54;;;;;;;1999.90;999.90;;;;;;;10.95;68.90;100660.47;15731913;28;20048;-58
2021/11/07 07:10:33;;;;;;;1999.90;999.90;;;;;;;11.14;68.45;100676.78;15806995;28;20044;-59
2021/11/07 07:18:15;;;;;;;1999.90;999.90;;;;;;;10.97;69.16;100663.75;15807524;28;20585;-61
2021/11/07 07:26:16;;;;;;;1999.90;999.90;;;;;;;10.98;70.02;100670.97;15788448;28;20044;-61
2021/11/07 07:33:57;;;;;;;1999.90;999.90;;;;;;;10.92;69.71;100674.28;15771791;28;20064;-64
2021/11/07 07:41:32;;;;;;;1999.90;999.90;;;;;;;10.98;70.66;100657.00;15789775;28;20063;-59
2021/11/07 07:49:08;;;;;;;1999.90;999.90;;;;;;;10.83;72.17;100635.22;15770141;28;20132;-60
2021/11/07 07:56:42;;;;;;;;;;;;;;;11.00;71.61;100620.38;15804940;28;20036;-60
2021/11/07 08:04:15;;;;;;;1999.90;999.90;;;;;;;11.14;72.21;100643.25;15786072;28;19930;-61
2021/11/07 08:11:49;;;;;;;1999.90;999.90;;;;;;;11.24;71.52;100644.84;15802813;28;20052;-61
2021/11/07 08:19:22;;;;;;;1999.90;999.90;;;;;;;11.19;71.50;100647.84;15803067;28;20055;-61
2021/11/07 08:26:56;;;;;;;1999.90;999.90;;;;;;;11.17;71.68;100639.81;15767718;28;20064;-60
2021/11/07 08:34:29;;;;;;;1999.90;999.90;;;;;;;11.71;69.88;100623.09;15801504;28;20048;-60
2021/11/07 08:42:08;;;;;;;1999.90;999.90;;;;;;;12.35;67.51;100631.00;15668249;28;20531;-61
2021/11/07 09:05:27;;;;;;;1999.90;999.90;;;;;;;12.20;67.66;100628.91;15673674;28;20029;-59
2021/11/07 09:13:03;;;;;;;1999.90;999.90;;;;;;;12.24;68.19;100615.84;15689251;28;20120;-61
2021/11/07 09:20:43;;;;;;;1999.90;999.90;;;;;;;12.42;68.02;100596.88;15708708;28;20075;-58
2021/11/07 09:28:29;;;;;;;1999.90;999.90;;;;;;;12.87;66.73;100596.75;15743703;28;20044;-57
2021/11/07 09:36:16;;;;;;;1999.90;999.90;;;;;;;13.16;65.66;100600.44;15743618;28;20052;-59
2021/11/07 09:43:53;;;;;;;1999.90;999.90;;;;;;;12.27;67.69;100584.38;15747597;28;20094;-65
2021/11/07 09:51:33;;;;;;;1999.90;999.90;;;;;;;12.08;68.48;100595.28;15747344;28;20072;-61
2021/11/07 09:59:07;;;;;;;1999.90;999.90;;;;;;;12.67;67.23;100594.91;15729503;28;20406;-59
2021/11/07 10:06:44;;;;;;;1999.90;999.90;;;;;;;12.09;68.24;100580.97;15748088;28;20045;-60
2021/11/07 10:14:20;;;;;;;1999.90;999.90;;;;;;;12.59;67.42;100588.22;15730882;28;20505;-58
2021/11/07 10:21:53;;;;;;;1999.90;999.90;;;;;;;12.53;67.62;100602.84;15747813;28;20070;-61
2021/11/07 10:29:33;;;;;;;1999.90;999.90;;;;;;;12.19;68.56;100596.47;15725845;28;20098;-58
2021/11/07 10:45:21;;;;;;;1999.90;999.90;;;;;;;11.74;70.46;100579.66;15718669;28;20072;-61
2021/11/07 10:52:58;;;;;;;1999.90;999.90;;;;;;;12.01;70.04;100567.09;15742791;28;20459;-61
2021/11/07 11:00:34;;;;;;;1999.90;999.90;;;;;;;11.67;70.63;100562.63;15710577;28;20106;-61
2021/11/07 11:08:14;;;;;;;1999.90;999.90;;;;;;;12.23;69.19;100558.25;15726321;28;20062;-62
2021/11/07 11:16:27;;;;;;;1999.90;999.90;;;;;;;12.17;69.85;100528.88;15724414;28;20045;-62
2021/11/07 11:24:10;;;;;;;1999.90;999.90;;;;;;;12.00;71.13;100520.72;15743076;28;20045;-60
2021/11/07 11:31:52;;;;;;;1999.90;999.90;;;;;;;12.14;71.30;100521.19;15721929;28;20094;-61
2021/11/07 11:39:30;;;;;;;1999.90;999.90;;;;;;;12.16;70.42;100501.25;15736459;28;20049;-62
2021/11/07 11:47:19;;;;;;;1999.90;999.90;;;;;;;11.91;71.28;100511.59;15723484;28;20040;-61
2021/11/07 11:55:02;;;;;;;1999.90;999.90;;;;;;;11.93;71.09;100540.84;15741069;28;20047;-61
2021/11/07 12:02:47;;;;;;;;;;;;;;;12.45;69.11;100539.38;15741465;28;20080;-61
2021/11/07 12:10:26;;;;;;;1999.90;999.90;;;;;;;12.27;69.28;100534.00;15722513;28;19920;-63
2021/11/07 12:18:07;;;;;;;1999.90;999.90;;;;;;;12.16;69.40;100527.25;15722292;28;20048;-63
2021/11/07 12:25:40;;;;;;;1999.90;999.90;;;;;;;12.25;68.90;100543.94;15718381;28;20049;-62
2021/11/07 12:33:19;;;;;;;1999.90;999.90;;;;;;;12.14;68.05;100521.19;15725046;28;20044;-62
2021/11/07 12:41:00;;;;;;;1999.90;999.90;;;;;;;12.01;68.17;100539.94;15719675;28;20051;-60
2021/11/07 12:48:41;;;;;;;1999.90;999.90;;;;;;;11.73;67.20;100534.13;15737129;28;20136;-61
2021/11/07 12:56:14;;;;;;;1999.90;999.90;;;;;;;11.68;65.74;100525.16;15733353;28;20573;-60
2021/11/07 13:03:51;;;;;;;1999.90;999.90;;;;;;;12.57;63.32;100523.41;15719110;28;20049;-60
2021/11/07 13:11:34;;;;;;;1999.90;999.90;;;;;;;13.33;60.63;100540.53;15737036;28;20131;-60
2021/11/07 13:19:28;;;;;;;1999.90;999.90;;;;;;;12.90;61.07;100531.63;15738519;28;20098;-60
2021/11/07 13:27:11;;;;;;;1999.90;999.90;;;;;;;13.22;60.56;100527.00;15703469;28;20040;-60
2021/11/07 13:34:54;;;;;;;1999.90;999.90;;;;;;;14.64;55.82;100526.41;15740674;28;20118;-61
2021/11/07 13:42:35;;;;;;;1999.90;999.90;;;;;;;13.29;59.72;100526.41;15750190;28;20040;-60
2021/11/07 13:50:12;;;;;;;1999.90;999.90;;;;;;;12.41;61.60;100526.09;15715227;28;20068;-63
2021/11/07 13:57:45;;;;;;;1999.90;999.90;;;;;;;12.33;62.59;100527.03;15730339;28;20079;-63
2021/11/07 14:05:20;;;;;;;1999.90;999.90;;;;;;;12.42;63.08;100530.53;15740763;28;20040;-63
2021/11/07 14:12:55;;;;;;;1999.90;999.90;;;;;;;12.43;62.61;100532.16;15747056;28;20045;-61
2021/11/07 14:20:46;;;;;;;1999.90;999.90;;;;;;;11.71;66.18;100550.44;15746709;28;20091;-61
2021/11/07 14:28:23;;;;;;;1999.90;999.90;;;;;;;11.08;72.93;100566.44;15746174;28;20041;-61
2021/11/07 14:36:04;;;;;;;1999.90;999.90;;;;;;;11.02;75.31;100553.84;15728613;28;20045;-61
2021/11/07 14:43:46;;;;;;;1999.90;999.90;;;;;;;10.73;75.18;100565.84;15728001;28;20653;-62
2021/11/07 14:51:41;;;;;;;1999.90;999.90;;;;;;;10.68;74.89;100560.47;15727897;28;20493;-62
2021/11/07 14:59:23;;;;;;;1999.90;999.90;;;;;;;10.73;74.27;100565.03;15744782;28;20044;-61
2021/11/07 15:07:01;;;;;;;1999.90;999.90;;;;;;;10.82;73.13;100565.78;15744616;28;20052;-61
2021/11/07 15:14:45;;;;;;;1999.90;999.90;;;;;;;10.67;72.78;100567.22;15726079;28;20120;-62
2021/11/07 15:22:21;;;;;;;;;;;;;;;10.65;72.09;100573.13;15726539;28;20058;-62
2021/11/07 15:29:58;;;;;;;1999.90;999.90;;;;;;;10.43;72.75;100576.22;15709360;28;19952;-62
2021/11/07 15:37:34;;;;;;;1999.90;999.90;;;;;;;10.54;71.72;100583.03;15742904;28;20391;-60
2021/11/07 15:45:11;;;;;;;1999.90;999.90;;;;;;;10.51;71.61;100591.25;15742748;28;20052;-61
2021/11/07 15:52:49;;;;;;;1999.90;999.90;;;;;;;10.12;72.45;100605.16;15747962;28;20056;-62
2021/11/07 16:00:31;;;;;;;1999.90;999.90;;;;;;;10.31;71.97;100615.94;15732803;28;20083;-62
2021/11/07 16:08:15;;;;;;;1999.90;999.90;;;;;;;10.11;72.48;100603.53;15725908;28;20071;-61
2021/11/07 16:15:58;;;;;;;1999.90;999.90;;;;;;;10.10;72.89;100607.44;15724118;28;20052;-61
2021/11/07 16:23:32;;;;;;;1999.90;999.90;;;;;;;10.17;73.36;100617.28;15739518;28;20215;-60
2021/11/07 16:31:07;;;;;;;1999.90;999.90;;;;;;;10.02;74.21;100607.50;15722348;28;20064;-61
2021/11/07 16:38:48;;;;;;;1999.90;999.90;;;;;;;10.20;74.20;100611.03;15740536;28;20064;-62
2021/11/07 16:46:23;;;;;;;1999.90;999.90;;;;;;;10.22;73.83;100619.94;15705744;28;20398;-61
2021/11/07 16:54:00;;;;;;;1999.90;999.90;;;;;;;10.20;74.30;100623.00;15722552;28;20055;-60
2021/11/07 17:01:36;;;;;;;1999.90;999.90;;;;;;;10.27;73.70;100642.88;15722576;28;20259;-60
2021/11/07 17:09:15;;;;;;;1999.90;999.90;;;;;;;10.25;73.17;100636.81;15742913;28;20141;-62
2021/11/07 17:16:50;;;;;;;1999.90;999.90;;;;;;;9.86;74.14;100637.03;15732595;28;20056;-61
2021/11/07 17:24:33;;;;;;;1999.90;999.90;;;;;;;10.07;73.22;100640.75;15747472;28;20693;-62
2021/11/07 17:32:11;;;;;;;1999.90;999.90;;;;;;;10.04;72.53;100641.44;15725562;28;20049;-61
2021/11/07 17:55:28;;;;;;;1999.90;999.90;;;;;;;9.76;72.45;100661.28;15731366;28;20484;-61
2021/11/07 18:03:02;;;;;;;1999.90;999.90;;;;;;;9.78;72.14;100656.19;15749193;28;20044;-61
2021/11/07 18:10:44;;;;;;;1999.90;999.90;;;;;;;9.82;71.75;100673.94;15730609;28;20044;-61
2021/11/07 18:18:17;;;;;;;1999.90;999.90;;;;;;;9.66;71.78;100681.13;15714140;28;20049;-61
2021/11/07 18:25:59;;;;;;;1999.90;999.90;;;;;;;9.78;71.25;100667.34;15747661;28;20497;-61
2021/11/07 18:33:32;;;;;;;1999.90;999.90;;;;;;;9.88;71.27;100670.94;15747991;28;20080;-62
2021/11/07 18:41:06;;;;;;;1999.90;999.90;;;;;;;10.09;69.88;100677.47;15723601;28;20049;-57
2021/11/07 18:48:39;;;;;;;1999.90;999.90;;;;;;;10.06;69.83;100680.94;15778831;28;20481;-61
2021/11/07 18:56:13;;;;;;;1999.90;999.90;;;;;;;10.06;70.21;100672.56;15793875;28;20387;-61
2021/11/07 19:03:47;;;;;;;1999.90;999.90;;;;;;;9.76;71.69;100674.41;15781691;28;20052;-57
2021/11/07 19:11:22;;;;;;;1999.90;999.90;;;;;;;9.79;72.02;100682.91;15730307;28;20121;-63
2021/11/07 19:18:55;;;;;;;1999.90;999.90;;;;;;;9.76;71.94;100683.59;15761492;28;20897;-61
2021/11/07 19:26:29;;;;;;;1999.90;999.90;;;;;;;9.71;71.91;100688.53;15725007;28;20040;-63
2021/11/07 19:34:02;;;;;;;1999.90;999.90;;;;;;;9.49;72.44;100692.28;15741554;28;20128;-62
2021/11/07 19:41:37;;;;;;;1999.90;999.90;;;;;;;9.62;72.14;100699.66;15740996;28;20127;-61
2021/11/07 19:49:13;;;;;;;1999.90;999.90;;;;;;;9.50;72.32;100705.88;15725624;28;20044;-61
2021/11/07 19:56:48;;;;;;;1999.90;999.90;;;;;;;9.66;71.55;100714.56;15783277;28;20443;-60
2021/11/07 20:04:26;;;;;;;1999.90;999.90;;;;;;;9.57;71.52;100727.66;15734486;28;20056;-60
2021/11/07 20:12:03;;;;;;;1999.90;999.90;;;;;;;9.51;71.67;100729.81;15745541;28;20094;-62
2021/11/07 20:19:36;;;;;;;1999.90;999.90;;;;;;;9.52;71.49;100728.66;15663115;28;20705;-61
2021/11/07 20:27:12;;;;;;;;;;;;;;;9.39;71.80;100737.16;15771240;28;20070;-61
2021/11/07 20:34:51;;;;;;;1999.90;999.90;;;;;;;9.35;71.43;100741.72;15703626;28;19924;-61
2021/11/07 20:42:28;;;;;;;1999.90;999.90;;;;;;;9.39;71.78;100751.91;15746614;28;20074;-61
2021/11/07 20:58:09;;;;;;;1999.90;999.90;;;;;;;9.54;71.55;100753.41;15706349;28;20076;-61
2021/11/07 21:05:45;;;;;;;1999.90;999.90;;;;;;;9.48;72.17;100751.91;15714557;28;20073;-59
2021/11/07 21:13:25;;;;;;;1999.90;999.90;;;;;;;9.47;72.30;100753.84;15707565;28;20051;-62
2021/11/07 21:28:59;;;;;;;1999.90;999.90;;;;;;;9.09;73.33;100767.53;15725615;28;20048;-62
2021/11/07 21:36:39;;;;;;;1999.90;999.90;;;;;;;9.37;72.40;100772.84;15730079;28;20083;-60
2021/11/07 21:44:16;;;;;;;1999.90;999.90;;;;;;;9.07;73.45;100766.22;15768525;28;20041;-62
2021/11/07 21:51:51;;;;;;;1999.90;999.90;;;;;;;9.10;73.33;100768.34;15741526;28;20057;-61
2021/11/07 21:59:25;;;;;;;1999.90;999.90;;;;;;;9.20;73.05;100791.16;15736347;28;20390;-62
2021/11/07 22:06:58;;;;;;;1999.90;999.90;;;;;;;8.95;74.16;100783.50;15733383;28;20515;-61
2021/11/07 22:14:38;;;;;;;1999.90;999.90;;;;;;;8.99;74.01;100787.31;15762689;28;20051;-60
2021/11/07 22:22:15;;;;;;;1999.90;999.90;;;;;;;9.04;73.96;100800.25;15788684;28;20048;-61
2021/11/07 22:29:55;;;;;;;1999.90;999.90;;;;;;;8.96;73.99;100802.69;15754779;28;20127;-61
2021/11/07 22:37:29;;;;;;;1999.90;999.90;;;;;;;8.95;74.40;100802.97;15737377;28;20139;-62
2021/11/07 22:45:08;;;;;;;1999.90;999.90;;;;;;;9.24;73.68;100803.28;15747419;28;20409;-61
2021/11/07 22:52:46;;;;;;;1999.90;999.90;;;;;;;9.41;72.96;100818.41;15787208;28;20048;-61
2021/11/07 23:00:33;;;;;;;1999.90;999.90;;;;;;;9.55;72.85;100824.66;15713315;28;20040;-61
2021/11/07 23:08:44;;;;;;;1999.90;999.90;;;;;;;9.52;72.68;100828.94;15760243;28;20048;-61
2021/11/07 23:16:18;;;;;;;1999.90;999.90;;;;;;;9.29;73.30;100835.75;15781946;28;20044;-62
2021/11/07 23:23:51;;;;;;;1999.90;999.90;;;;;;;9.41;73.17;100844.31;15742357;28;20131;-60
2021/11/07 23:31:25;;;;;;;1999.90;999.90;;;;;;;9.28;74.14;100838.84;15777531;28;20086;-60
2021/11/07 23:38:58;;;;;;;1999.90;999.90;;;;;;;9.50;73.39;100841.56;15749359;28;20496;-61
2021/11/07 23:46:32;;;;;;;1999.90;999.90;;;;;;;9.52;73.48;100854.00;15754858;28;20523;-60
2021/11/07 23:54:09;;;;;;;1999.90;999.90;;;;;;;9.64;73.42;100852.56;15732518;28;20131;-61
